Time;durP1;ratioP1;P1;durP2;ratioP2;P2;SDS_P1;SDS_P2;PMS_P1;PMS_P2;Temp;Humidity;BMP_temperature;BMP_pressure;BME280_temperature;BME280_humidity;BME280_pressure;Samples;Min_cycle;Max_cycle;Signal;HPM_P1;HPM_P2
2022/11/19 00:01:12;;;;;;;15.45;9.48;;;;;;;6.78;92.34;99464.00;1746527;80;26131;-63
2022/11/19 00:03:41;;;;;;;12.68;9.00;;;;;;;6.70;92.20;99471.89;1741502;82;25661;-63
2022/11/19 00:06:17;;;;;;;14.23;9.78;;;;;;;6.68;92.56;99481.91;1741341;82;25849;-63
2022/11/19 00:08:45;;;;;;;15.60;10.98;;;;;;;6.67;92.98;99482.37;1741036;82;25746;-63
2022/11/19 00:12:53;;;;;;;20.40;12.58;;;;;;;6.61;93.63;99481.63;1741439;82;27535;-63
2022/11/19 00:13:44;;;;;;;20.80;13.10;;;;;;;6.56;94.10;99482.05;1740236;80;25738;-63
2022/11/19 00:16:13;;;;;;;15.50;12.03;;;;;;;6.50;95.28;99481.77;1768319;81;25746;-63
2022/11/19 00:18:41;;;;;;;22.87;11.43;;;;;;;6.45;95.55;99486.20;1769124;81;26558;-63
2022/11/19 00:21:11;;;;;;;17.20;10.18;;;;;;;6.45;95.18;99480.86;1736745;80;25778;-63
2022/11/19 00:23:40;;;;;;;15.05;10.32;;;;;;;6.42;95.42;99484.66;1702284;84;27411;-63
2022/11/19 00:26:13;;;;;;;14.65;10.50;;;;;;;6.39;95.63;99493.45;1733630;82;25796;-63
2022/11/19 00:28:41;;;;;;;15.10;11.03;;;;;;;6.36;95.80;99497.73;1702548;84;25677;-60
2022/11/19 00:31:11;;;;;;;15.90;10.90;;;;;;;6.38;96.04;99499.77;1757369;80;25777;-63
2022/11/19 00:33:40;;;;;;;16.52;12.03;;;;;;;6.39;95.75;99489.44;1734779;81;26250;-63
2022/11/19 00:36:10;;;;;;;17.35;10.95;;;;;;;6.45;96.03;99492.88;1733709;82;27494;-63
2022/11/19 00:38:38;;;;;;;17.95;10.53;;;;;;;6.45;95.57;99496.05;1733526;82;25805;-63
2022/11/19 00:41:06;;;;;;;11.33;8.35;;;;;;;6.37;95.77;99489.56;1733811;81;25483;-63
2022/11/19 00:43:48;;;;;;;11.95;6.75;;;;;;;6.30;95.78;99503.13;1733386;82;26474;-63
2022/11/19 00:46:20;;;;;;;9.00;5.62;;;;;;;6.18;96.07;99511.77;1733671;82;25740;-63
2022/11/19 00:48:50;;;;;;;7.87;5.45;;;;;;;6.08;96.05;99514.44;1751239;81;27458;-63
2022/11/19 00:51:19;;;;;;;10.55;6.28;;;;;;;6.04;96.33;99517.02;1760486;81;25796;-63
2022/11/19 00:53:46;;;;;;;8.60;5.30;;;;;;;6.04;95.94;99533.04;1762605;81;25834;-63
2022/11/19 00:56:17;;;;;;;6.83;5.37;;;;;;;6.01;96.41;99540.48;1773735;80;25769;-63
2022/11/19 00:58:45;;;;;;;7.92;5.35;;;;;;;5.99;96.03;99542.41;1764114;81;25669;-63
2022/11/19 01:01:15;;;;;;;6.10;4.95;;;;;;;5.96;95.87;99542.20;1733660;82;27439;-63
2022/11/19 01:03:44;;;;;;;7.53;5.70;;;;;;;5.87;95.43;99546.52;1758491;81;25715;-63
2022/11/19 01:06:12;;;;;;;8.63;5.70;;;;;;;5.81;95.13;99541.73;1752395;81;25788;-63
2022/11/19 01:08:39;;;;;;;6.95;5.83;;;;;;;5.82;95.31;99540.75;1745523;81;25799;-63
2022/11/19 01:11:13;;;;;;;7.83;5.90;;;;;;;5.79;95.07;99545.02;1746333;81;25768;-63
2022/11/19 01:13:41;;;;;;;7.75;5.83;;;;;;;5.76;95.41;99548.80;1704335;84;28182;-63
2022/11/19 01:16:13;;;;;;;9.63;6.70;;;;;;;5.73;95.24;99551.77;1727427;81;25470;-63
2022/11/19 01:18:42;;;;;;;9.70;6.30;;;;;;;5.67;95.78;99570.12;1727075;82;25715;-63
2022/11/19 01:21:11;;;;;;;7.85;5.95;;;;;;;5.62;95.70;99572.70;1724727;83;25924;-63
2022/11/19 01:23:41;;;;;;;7.65;5.58;;;;;;;5.61;95.46;99567.50;1728013;81;25517;-63
2022/11/19 01:26:09;;;;;;;8.20;5.15;;;;;;;5.61;95.48;99575.00;1728238;83;27011;-63
2022/11/19 01:28:36;;;;;;;6.65;5.35;;;;;;;5.60;95.26;99575.15;1728043;83;25807;-63
2022/11/19 01:31:10;;;;;;;6.45;4.85;;;;;;;5.57;95.08;99602.95;1727054;81;25771;-63
2022/11/19 01:33:37;;;;;;;6.97;4.92;;;;;;;5.49;95.00;99603.59;1709823;83;25816;-63
2022/11/19 01:36:12;;;;;;;8.30;5.17;;;;;;;5.39;95.05;99609.86;1710381;83;25725;-63
2022/11/19 01:38:39;;;;;;;5.70;4.35;;;;;;;5.29;95.41;99603.98;1709127;82;29674;-63
2022/11/19 01:41:07;;;;;;;6.30;3.75;;;;;;;5.20;95.64;99601.27;1707340;84;25720;-63
2022/11/19 01:43:45;;;;;;;4.30;3.20;;;;;;;5.12;95.45;99614.73;1707721;84;25843;-63
2022/11/19 01:46:17;;;;;;;3.95;2.85;;;;;;;5.03;95.06;99621.34;1707246;83;26438;-63
2022/11/19 01:49:04;;;;;;;3.33;1.75;;;;;;;4.94;94.49;99629.13;1707377;83;25791;-63
2022/11/19 01:51:49;;;;;;;2.67;1.82;;;;;;;4.89;94.26;99615.83;1707468;84;27418;-63
2022/11/19 01:54:40;;;;;;;;;;;;;;;4.85;93.79;99623.23;1723958;82;25743;-63
2022/11/19 01:57:12;;;;;;;2.50;1.30;;;;;;;4.76;93.37;99632.83;1725778;82;25818;-62
2022/11/19 01:59:40;;;;;;;3.12;1.45;;;;;;;4.65;92.70;99648.38;1712754;80;25802;-62
2022/11/19 02:02:07;;;;;;;3.80;1.40;;;;;;;4.57;92.51;99638.83;1724216;83;25712;-62
2022/11/19 02:04:35;;;;;;;4.70;1.92;;;;;;;4.55;92.47;99650.09;1723789;81;28162;-62
2022/11/19 02:07:03;;;;;;;2.35;1.55;;;;;;;4.47;92.32;99660.52;1720062;83;25740;-62
2022/11/19 02:09:32;;;;;;;1.75;1.60;;;;;;;4.39;92.39;99671.81;1720373;82;25766;-62
2022/11/19 02:12:18;;;;;;;2.42;2.00;;;;;;;4.35;92.36;99660.53;1720136;82;25912;-62
2022/11/19 02:15:26;;;;;;;3.50;1.95;;;;;;;4.33;92.25;99669.62;1720203;81;53764;-62
2022/11/19 02:18:24;;;;;;;1.67;1.57;;;;;;;4.26;92.12;99665.77;1719876;82;27628;-62
2022/11/19 02:21:01;;;;;;;3.52;2.25;;;;;;;4.25;92.11;99686.70;1727813;81;25705;-62
2022/11/19 02:24:01;;;;;;;2.33;1.90;;;;;;;4.17;91.19;99683.34;1720908;81;25868;-62
2022/11/19 02:26:48;;;;;;;2.75;1.95;;;;;;;4.12;90.88;99702.33;1724389;81;25929;-62
2022/11/19 02:30:04;;;;;;;2.90;1.60;;;;;;;4.00;90.47;99713.93;1724309;81;25472;-62
2022/11/19 02:32:54;;;;;;;3.45;1.60;;;;;;;3.93;90.43;99711.39;1724182;82;28306;-62
2022/11/19 02:35:44;;;;;;;4.42;1.80;;;;;;;3.81;90.75;99739.80;1723859;83;25734;-62
2022/11/19 02:38:31;;;;;;;1.87;1.50;;;;;;;3.74;90.29;99747.39;1724748;81;25496;-62
2022/11/19 02:41:32;;;;;;;1.60;1.40;;;;;;;3.68;90.02;99759.34;1703046;81;26678;-62
2022/11/19 02:43:38;;;;;;;2.00;1.32;;;;;;;3.62;89.11;99776.24;1700882;83;25808;-62
2022/11/19 02:46:12;;;;;;;1.20;1.10;;;;;;;3.55;89.01;99768.73;1716741;82;27542;-62
2022/11/19 02:48:45;;;;;;;1.77;0.82;;;;;;;3.51;88.20;99780.56;1697124;83;25816;-62
2022/11/19 02:51:14;;;;;;;0.75;0.75;;;;;;;3.50;88.70;99787.33;1686949;85;25764;-62
2022/11/19 02:53:41;;;;;;;0.50;0.50;;;;;;;3.45;87.22;99803.63;1701027;83;25824;-62
2022/11/19 02:56:19;;;;;;;0.98;0.90;;;;;;;3.34;86.45;99799.58;1705645;83;25832;-62
2022/11/19 03:04:30;;;;;;;2.50;0.60;;;;;;;3.32;86.19;99832.09;1719542;82;25663;-62
2022/11/19 03:07:07;;;;;;;0.80;0.80;;;;;;;3.25;85.54;99839.66;1714722;82;25971;-62
2022/11/19 03:09:45;;;;;;;0.75;0.70;;;;;;;3.22;85.48;99855.83;1733719;82;27337;-62
2022/11/19 03:12:26;;;;;;;0.98;0.70;;;;;;;3.26;86.11;99872.77;1739064;81;27560;-62
2022/11/19 03:18:21;;;;;;;0.53;0.53;;;;;;;3.33;84.95;99894.91;1674697;84;25561;-62
2022/11/19 03:21:02;;;;;;;0.50;0.50;;;;;;;3.29;84.57;99886.31;1709485;83;26648;-62
2022/11/19 03:23:33;;;;;;;0.68;0.68;;;;;;;3.28;84.07;99894.78;1726064;83;25779;-62
2022/11/19 03:26:24;;;;;;;0.50;0.50;;;;;;;3.18;82.29;99887.59;1726086;83;27584;-62
2022/11/19 03:28:55;;;;;;;1.07;0.90;;;;;;;3.07;82.53;99906.94;1726107;83;25733;-62
2022/11/19 03:31:25;;;;;;;0.78;0.60;;;;;;;2.98;82.67;99907.13;1726161;83;25813;-62
2022/11/19 03:33:57;;;;;;;0.55;0.55;;;;;;;2.92;83.21;99914.19;1726312;83;25927;-62
2022/11/19 03:36:31;;;;;;;1.22;0.90;;;;;;;2.89;82.99;99925.05;1726260;83;25792;-62
2022/11/19 03:39:03;;;;;;;1.57;1.00;;;;;;;2.87;83.44;99930.94;1726432;83;28167;-62
2022/11/19 03:41:33;;;;;;;1.25;0.95;;;;;;;2.82;82.74;99932.59;1726201;83;25804;-63
2022/11/19 03:44:11;;;;;;;0.98;0.75;;;;;;;2.75;82.29;99940.62;1718232;83;25528;-62
2022/11/19 03:46:40;;;;;;;0.80;0.80;;;;;;;2.69;82.16;99955.17;1703223;83;25848;-62
2022/11/19 03:49:11;;;;;;;4.22;1.00;;;;;;;2.64;81.36;99964.78;1716738;83;25879;-62
2022/11/19 03:51:51;;;;;;;1.42;1.00;;;;;;;2.56;81.67;99983.50;1716850;83;27515;-62
2022/11/19 03:54:19;;;;;;;1.32;1.15;;;;;;;2.52;81.70;100024.02;1702264;83;25796;-62
2022/11/19 03:56:48;;;;;;;1.20;1.10;;;;;;;2.48;81.86;100014.08;1677528;83;25782;-62
2022/11/19 03:59:16;;;;;;;1.12;1.02;;;;;;;2.48;81.92;100022.54;1708363;83;25781;-62
2022/11/19 04:01:46;;;;;;;1.22;1.10;;;;;;;2.48;82.28;100022.54;1746505;80;25863;-62
2022/11/19 04:06:58;;;;;;;4.05;2.83;;;;;;;2.45;81.16;100062.55;1783752;80;25433;-62
2022/11/19 04:09:25;;;;;;;5.37;1.40;;;;;;;2.45;81.16;100067.86;1759733;80;26133;-62
2022/11/19 04:11:52;;;;;;;3.40;2.05;;;;;;;2.46;81.66;100078.86;1757150;81;25837;-62
2022/11/19 04:14:19;;;;;;;1.65;1.55;;;;;;;2.53;82.09;100083.30;1757374;81;25819;-62
2022/11/19 04:16:45;;;;;;;1.40;1.30;;;;;;;2.53;81.62;100099.23;1756925;81;27515;-62
2022/11/19 04:19:12;;;;;;;2.50;1.70;;;;;;;2.50;81.01;100099.80;1756188;80;25647;-62
2022/11/19 04:21:39;;;;;;;3.10;1.90;;;;;;;2.48;81.56;100107.00;1760804;80;25595;-62
2022/11/19 04:24:08;;;;;;;2.05;1.60;;;;;;;2.48;81.29;100101.70;1731627;81;25804;-62
2022/11/19 04:26:34;;;;;;;4.75;2.35;;;;;;;2.53;81.55;100115.16;1781176;80;25944;-62
2022/11/19 04:29:02;;;;;;;2.30;1.70;;;;;;;2.54;81.48;100123.02;1784041;80;28160;-62
2022/11/19 04:31:28;;;;;;;5.05;2.20;;;;;;;2.57;81.54;100123.28;1783890;80;25754;-62
2022/11/19 04:33:55;;;;;;;3.58;2.60;;;;;;;2.64;81.66;100129.43;1784032;80;25782;-62
2022/11/19 04:36:22;;;;;;;4.05;2.65;;;;;;;2.73;81.73;100130.64;1783695;80;25851;-62
2022/11/19 04:38:48;;;;;;;2.72;2.27;;;;;;;2.78;81.26;100125.86;1784232;80;26121;-62
2022/11/19 04:41:15;;;;;;;2.80;2.33;;;;;;;2.83;81.25;100133.53;1783823;80;27862;-61
2022/11/19 04:43:42;;;;;;;3.15;2.85;;;;;;;2.92;80.59;100136.03;1783940;80;25743;-61
2022/11/19 04:46:08;;;;;;;3.80;2.85;;;;;;;2.87;80.34;100148.78;1775617;80;25819;-62
2022/11/19 04:48:35;;;;;;;3.52;3.12;;;;;;;2.84;79.92;100151.63;1738861;82;25799;-61
2022/11/19 04:51:02;;;;;;;3.30;2.50;;;;;;;2.85;79.85;100161.31;1738967;82;25802;-62
2022/11/19 04:53:30;;;;;;;3.62;2.67;;;;;;;2.89;80.32;100172.13;1746651;81;27378;-62
2022/11/19 04:55:56;;;;;;;7.90;3.47;;;;;;;2.89;79.13;100174.28;1760077;80;25727;-62
2022/11/19 04:58:23;;;;;;;7.70;3.10;;;;;;;2.85;78.93;100184.76;1759579;81;25668;-62
2022/11/19 05:00:50;;;;;;;5.05;3.22;;;;;;;2.88;79.19;100190.34;1759008;81;25987;-62
2022/11/19 05:03:20;;;;;;;4.58;3.12;;;;;;;2.94;79.40;100192.58;1756901;81;25510;-62
2022/11/19 05:05:46;;;;;;;4.10;3.30;;;;;;;2.94;78.63;100199.23;1757019;81;28397;-62
2022/11/19 05:08:13;;;;;;;5.12;3.58;;;;;;;2.91;78.71;100206.09;1756775;81;25976;-61
2022/11/19 05:10:40;;;;;;;3.85;3.05;;;;;;;2.94;79.13;100216.04;1756899;81;26171;-61
2022/11/19 05:13:07;;;;;;;3.37;3.02;;;;;;;2.98;78.78;100220.67;1756829;80;25860;-62
2022/11/19 05:15:34;;;;;;;4.22;3.25;;;;;;;2.96;78.92;100224.73;1756877;81;25510;-63
2022/11/19 05:18:01;;;;;;;6.28;4.33;;;;;;;2.85;77.78;100228.59;1759064;80;27453;-62
2022/11/19 05:20:28;;;;;;;5.45;4.17;;;;;;;2.85;78.23;100239.22;1731703;81;26523;-62
2022/11/19 05:22:55;;;;;;;6.75;4.70;;;;;;;2.85;77.59;100247.65;1759575;81;25753;-62
2022/11/19 05:25:22;;;;;;;7.10;4.95;;;;;;;2.73;76.66;100247.52;1760236;81;25846;-62
2022/11/19 05:27:49;;;;;;;8.10;4.70;;;;;;;2.65;76.30;100263.06;1759506;81;25827;-62
2022/11/19 05:30:16;;;;;;;6.92;4.75;;;;;;;2.54;75.88;100278.84;1760366;81;27659;-62
2022/11/19 05:32:42;;;;;;;9.78;6.28;;;;;;;2.43;76.57;100296.30;1759490;80;25742;-62
2022/11/19 05:35:10;;;;;;;7.80;5.45;;;;;;;2.49;76.83;100294.57;1760256;81;25826;-62
2022/11/19 05:37:36;;;;;;;8.50;5.45;;;;;;;2.50;77.02;100297.61;1759618;81;25791;-62
2022/11/19 05:40:05;;;;;;;9.60;6.62;;;;;;;2.54;77.60;100306.72;1760296;81;25764;-62
2022/11/19 05:42:32;;;;;;;13.20;7.45;;;;;;;2.50;76.80;100310.05;1760048;81;27568;-62
2022/11/19 05:44:58;;;;;;;7.95;5.87;;;;;;;2.45;76.75;100335.55;1760158;81;26108;-62
2022/11/19 05:47:26;;;;;;;9.78;6.47;;;;;;;2.47;76.85;100342.92;1733764;82;26546;-62
2022/11/19 05:49:52;;;;;;;11.85;6.42;;;;;;;2.43;75.99;100341.42;1733862;82;26697;-63
2022/11/19 05:52:21;;;;;;;10.18;6.85;;;;;;;2.41;76.38;100349.11;1702887;83;25840;-63
2022/11/19 05:54:48;;;;;;;10.88;7.00;;;;;;;2.38;75.97;100353.27;1744436;81;28384;-62
2022/11/19 05:57:15;;;;;;;8.95;6.17;;;;;;;2.31;75.85;100375.34;1745773;82;25865;-62
2022/11/19 05:59:42;;;;;;;9.23;6.40;;;;;;;2.21;76.16;100390.98;1746101;81;25794;-62
2022/11/19 06:02:09;;;;;;;8.65;6.50;;;;;;;2.21;76.46;100406.03;1755496;81;25786;-61
2022/11/19 06:04:36;;;;;;;10.70;7.03;;;;;;;2.24;76.39;100398.74;1757592;81;25750;-63
2022/11/19 06:07:03;;;;;;;7.90;6.67;;;;;;;2.18;76.33;100401.31;1757647;81;27467;-62
2022/11/19 06:09:31;;;;;;;8.43;6.35;;;;;;;2.18;76.22;100405.75;1757336;81;25785;-62
2022/11/19 06:11:58;;;;;;;9.75;7.17;;;;;;;2.17;76.23;100412.00;1757731;81;25761;-62
2022/11/19 06:14:26;;;;;;;10.00;7.00;;;;;;;2.14;76.17;100414.38;1757494;81;25802;-62
2022/11/19 06:16:58;;;;;;;14.40;8.40;;;;;;;2.25;76.45;100419.52;1757948;80;26072;-62
2022/11/19 06:19:26;;;;;;;12.30;7.17;;;;;;;2.29;75.93;100421.03;1753497;80;27469;-62
2022/11/19 06:21:53;;;;;;;11.90;8.55;;;;;;;2.24;74.73;100433.25;1751847;81;25747;-62
2022/11/19 06:24:20;;;;;;;11.15;7.87;;;;;;;2.26;75.78;100429.20;1751845;81;25775;-62
2022/11/19 06:26:47;;;;;;;10.72;7.72;;;;;;;2.32;75.36;100438.11;1752174;81;25795;-62
2022/11/19 06:29:16;;;;;;;12.90;9.50;;;;;;;2.35;75.03;100440.11;1751769;81;27303;-62
2022/11/19 06:31:43;;;;;;;13.43;8.63;;;;;;;2.36;75.40;100439.66;1762646;81;28206;-62
2022/11/19 06:34:10;;;;;;;13.00;8.45;;;;;;;2.36;74.87;100452.92;1770595;81;25752;-62
2022/11/19 06:36:36;;;;;;;12.68;8.23;;;;;;;2.20;73.62;100454.30;1770774;80;25851;-62
2022/11/19 06:39:03;;;;;;;14.33;8.70;;;;;;;2.18;74.30;100450.87;1770812;80;25929;-62
2022/11/19 06:41:30;;;;;;;11.08;7.97;;;;;;;2.21;74.51;100457.34;1770782;80;25861;-62
2022/11/19 06:43:59;;;;;;;11.40;8.35;;;;;;;2.26;74.45;100480.95;1771099;80;27421;-62
2022/11/19 06:46:26;;;;;;;12.10;8.03;;;;;;;2.26;74.44;100487.10;1770628;80;25767;-63
2022/11/19 06:48:53;;;;;;;12.73;8.45;;;;;;;2.28;74.28;100486.55;1770693;80;25846;-62
2022/11/19 06:51:20;;;;;;;11.50;8.15;;;;;;;2.30;74.43;100496.61;1770661;80;25944;-62
2022/11/19 06:53:47;;;;;;;15.60;9.30;;;;;;;2.38;74.75;100509.91;1764604;81;25752;-62
2022/11/19 06:56:14;;;;;;;14.95;10.45;;;;;;;2.37;74.51;100525.45;1757408;80;27446;-63
2022/11/19 06:58:47;;;;;;;13.40;9.65;;;;;;;2.34;74.77;100539.76;1757473;80;25827;-63
2022/11/19 07:01:13;;;;;;;13.70;9.15;;;;;;;2.26;73.54;100552.63;1748826;81;25846;-61
2022/11/19 07:03:41;;;;;;;13.35;8.88;;;;;;;2.22;74.26;100563.02;1733140;82;25853;-63
2022/11/19 07:06:09;;;;;;;12.33;9.45;;;;;;;2.23;74.10;100564.28;1733550;82;25800;-63
2022/11/19 07:08:38;;;;;;;12.18;9.18;;;;;;;2.13;73.95;100569.23;1712275;82;27564;-63
2022/11/19 07:11:25;;;;;;;16.80;10.08;;;;;;;2.19;74.35;100555.64;1733280;82;25928;-62
2022/11/19 07:14:02;;;;;;;12.18;8.85;;;;;;;2.23;74.26;100568.71;1733058;81;25847;-63
2022/11/19 07:16:33;;;;;;;15.48;9.70;;;;;;;2.27;74.42;100567.13;1733226;82;26148;-63
2022/11/19 07:19:07;;;;;;;12.45;9.25;;;;;;;2.37;73.98;100577.22;1745333;80;25817;-64
2022/11/19 07:21:37;;;;;;;11.95;8.48;;;;;;;2.44;74.26;100579.89;1743852;80;26180;-62
2022/11/19 07:24:07;;;;;;;12.28;9.30;;;;;;;2.55;74.40;100570.84;1707566;82;25461;-63
2022/11/19 07:26:35;;;;;;;13.03;8.28;;;;;;;2.64;74.10;100580.09;1738423;80;25747;-62
2022/11/19 07:29:06;;;;;;;12.43;8.88;;;;;;;2.68;73.61;100593.55;1707721;82;26699;-62
2022/11/19 07:31:33;;;;;;;14.47;9.33;;;;;;;2.61;72.52;100605.48;1738805;81;25471;-63
2022/11/19 07:34:00;;;;;;;15.85;9.18;;;;;;;2.54;72.24;100614.76;1707976;84;27592;-62
2022/11/19 07:36:27;;;;;;;14.03;8.98;;;;;;;2.63;72.98;100618.21;1738585;82;25778;-62
2022/11/19 07:38:53;;;;;;;13.05;8.93;;;;;;;2.75;72.68;100607.34;1739032;81;25890;-62
2022/11/19 07:44:06;;;;;;;13.90;9.43;;;;;;;2.80;71.99;100626.05;1739354;82;25684;-62
2022/11/19 07:46:33;;;;;;;16.23;9.33;;;;;;;2.74;71.37;100621.08;1707861;84;27494;-63
2022/11/19 07:49:00;;;;;;;11.22;8.20;;;;;;;2.70;71.84;100623.55;1739269;81;25835;-62
2022/11/19 07:51:28;;;;;;;10.58;8.38;;;;;;;2.67;71.32;100626.37;1739311;81;25834;-63
2022/11/19 07:53:56;;;;;;;12.68;9.63;;;;;;;2.54;70.42;100626.22;1744198;81;26716;-62
2022/11/19 07:56:24;;;;;;;13.00;8.65;;;;;;;2.60;71.57;100635.64;1742535;81;25839;-63
2022/11/19 07:58:50;;;;;;;13.03;8.93;;;;;;;2.76;71.99;100643.59;1750607;81;27435;-63
2022/11/19 08:01:22;;;;;;;19.87;8.58;;;;;;;2.86;72.12;100643.89;1747766;81;27351;-62
2022/11/19 08:03:50;;;;;;;15.13;9.05;;;;;;;3.00;72.38;100657.25;1743068;81;25781;-62
2022/11/19 08:06:19;;;;;;;13.70;8.50;;;;;;;3.15;71.63;100677.22;1739424;82;25765;-62
2022/11/19 08:08:46;;;;;;;16.45;9.68;;;;;;;3.19;71.48;100665.44;1730794;82;25821;-63
2022/11/19 08:11:15;;;;;;;12.93;9.58;;;;;;;3.24;71.42;100674.85;1732961;82;28143;-62
2022/11/19 08:13:42;;;;;;;13.62;9.10;;;;;;;3.33;71.75;100693.41;1738864;82;25816;-62
2022/11/19 08:19:03;;;;;;;11.78;9.33;;;;;;;3.18;70.59;100704.47;1740760;81;25847;-62
2022/11/19 08:21:30;;;;;;;12.63;9.35;;;;;;;3.07;69.69;100706.89;1737920;81;25753;-62
2022/11/19 08:23:57;;;;;;;13.25;10.03;;;;;;;3.00;69.82;100715.72;1738318;82;27520;-62
2022/11/19 08:26:24;;;;;;;13.72;9.30;;;;;;;3.00;70.29;100721.03;1746506;81;25511;-64
2022/11/19 08:28:50;;;;;;;14.38;10.55;;;;;;;2.97;69.72;100723.86;1738185;82;25934;-63
2022/11/19 08:31:17;;;;;;;14.40;10.63;;;;;;;2.96;70.08;100720.81;1746292;82;25947;-63
2022/11/19 08:33:43;;;;;;;16.50;10.10;;;;;;;2.98;69.44;100737.53;1738580;82;25808;-62
2022/11/19 08:36:10;;;;;;;16.85;10.78;;;;;;;2.97;69.21;100751.27;1746589;82;27468;-63
2022/11/19 08:38:37;;;;;;;16.05;9.53;;;;;;;3.03;70.05;100751.88;1738198;82;25881;-63
2022/11/19 08:43:51;;;;;;;13.95;9.40;;;;;;;3.33;70.29;100755.02;1739021;82;26588;-63
2022/11/19 08:46:17;;;;;;;15.03;9.05;;;;;;;3.38;68.82;100759.13;1746648;81;25777;-63
2022/11/19 08:48:44;;;;;;;13.20;9.55;;;;;;;3.56;69.23;100770.95;1754649;81;28446;-63
2022/11/19 08:51:13;;;;;;;16.02;9.85;;;;;;;3.71;69.12;100777.17;1743567;81;25825;-63
2022/11/19 08:53:41;;;;;;;12.98;10.32;;;;;;;3.83;68.48;100788.88;1739099;81;25694;-65
2022/11/19 08:56:07;;;;;;;15.80;9.80;;;;;;;3.86;68.87;100800.19;1742811;81;25852;-62
2022/11/19 08:58:35;;;;;;;16.40;10.85;;;;;;;3.96;68.81;100804.50;1748550;81;25742;-63
2022/11/19 09:01:11;;;;;;;12.63;9.53;;;;;;;4.02;68.91;100800.13;1706312;83;27486;-63
2022/11/19 09:03:38;;;;;;;16.20;10.43;;;;;;;4.00;68.18;100800.69;1742661;81;25797;-63
2022/11/19 09:06:08;;;;;;;15.28;10.60;;;;;;;4.05;67.80;100792.42;1741538;81;25849;-63
2022/11/19 09:08:47;;;;;;;13.95;9.95;;;;;;;4.18;68.87;100811.16;1747094;81;25674;-64
2022/11/19 09:11:18;;;;;;;12.43;9.78;;;;;;;4.29;67.62;100814.03;1739603;81;26431;-62
2022/11/19 09:13:46;;;;;;;14.18;9.75;;;;;;;4.37;66.46;100807.75;1737124;81;27514;-62
2022/11/19 09:16:13;;;;;;;16.75;10.35;;;;;;;4.46;66.20;100813.00;1744416;81;25828;-62
2022/11/19 09:18:41;;;;;;;19.95;11.93;;;;;;;4.53;66.37;100820.11;1743558;80;25770;-62
2022/11/19 09:21:10;;;;;;;17.73;11.45;;;;;;;4.51;66.56;100826.03;1746782;80;25824;-62
2022/11/19 09:23:38;;;;;;;13.83;10.38;;;;;;;4.58;67.04;100839.34;1744577;81;25832;-62
2022/11/19 09:26:08;;;;;;;17.67;11.60;;;;;;;4.69;67.34;100846.66;1721969;81;27429;-61
2022/11/19 09:28:35;;;;;;;16.45;11.63;;;;;;;4.68;66.86;100867.14;1744453;81;26128;-61
2022/11/19 09:31:07;;;;;;;32.48;14.87;;;;;;;4.64;66.32;100861.60;1744435;81;25748;-64
2022/11/19 09:33:38;;;;;;;17.75;11.83;;;;;;;4.56;65.51;100853.23;1740984;81;26676;-63
2022/11/19 09:36:06;;;;;;;15.88;10.32;;;;;;;4.60;66.21;100848.11;1723885;81;26478;-64
2022/11/19 09:38:34;;;;;;;14.65;10.98;;;;;;;4.72;65.75;100825.61;1745279;81;27458;-62
2022/11/19 09:41:44;;;;;;;13.25;9.58;;;;;;;4.92;65.57;100814.55;1745483;81;25840;-62
2022/11/19 09:44:37;;;;;;;14.98;10.00;;;;;;;5.71;63.89;100797.84;1736092;81;25464;-63
2022/11/19 09:47:34;;;;;;;13.90;10.00;;;;;;;6.21;62.83;100812.26;1742505;81;25973;-63
2022/11/19 09:50:16;;;;;;;14.23;10.45;;;;;;;6.12;60.92;100823.58;1746204;81;25815;-62
2022/11/19 09:53:03;;;;;;;15.95;12.18;;;;;;;5.92;61.57;100828.90;1752822;81;27484;-62
2022/11/19 09:55:40;;;;;;;18.25;12.53;;;;;;;5.89;60.87;100833.98;1733159;81;25793;-63
2022/11/19 09:58:42;;;;;;;15.05;10.65;;;;;;;5.84;61.43;100844.59;1750250;81;25807;-63
2022/11/19 10:01:17;;;;;;;13.18;10.28;;;;;;;6.01;59.76;100836.81;1761176;80;25815;-63
2022/11/19 10:03:48;;;;;;;12.45;9.88;;;;;;;5.90;60.55;100838.36;1740293;81;25739;-63
2022/11/19 10:06:41;;;;;;;13.55;11.08;;;;;;;5.79;59.79;100835.55;1740470;81;27481;-62
2022/11/19 10:09:53;;;;;;;12.85;10.20;;;;;;;5.63;59.17;100853.94;1739980;81;25748;-63
2022/11/19 10:12:55;;;;;;;13.60;10.63;;;;;;;5.37;60.12;100868.15;1731108;81;25716;-62
2022/11/19 10:15:28;;;;;;;13.15;9.80;;;;;;;5.17;61.40;100894.30;1731348;81;26650;-62
2022/11/19 10:18:03;;;;;;;16.62;11.43;;;;;;;5.14;61.71;100899.84;1743522;80;25792;-62
2022/11/19 10:21:05;;;;;;;16.30;11.38;;;;;;;5.13;61.71;100914.97;1738718;80;27469;-62
2022/11/19 10:23:54;;;;;;;16.17;11.45;;;;;;;5.10;62.40;100912.52;1732636;81;25853;-62
2022/11/19 10:26:34;;;;;;;13.95;10.80;;;;;;;5.21;62.86;100902.49;1728622;81;25783;-62
2022/11/19 10:29:04;;;;;;;13.55;10.68;;;;;;;5.31;62.42;100894.73;1728568;81;25830;-62
2022/11/19 10:31:43;;;;;;;13.38;10.28;;;;;;;5.36;61.97;100895.78;1740332;81;25856;-62
2022/11/19 10:34:26;;;;;;;14.60;10.93;;;;;;;5.37;61.36;100896.16;1754580;81;28175;-62
2022/11/19 10:36:57;;;;;;;12.93;10.28;;;;;;;5.36;62.05;100902.45;1754071;81;25751;-62
2022/11/19 10:39:45;;;;;;;15.25;10.38;;;;;;;5.46;61.94;100915.58;1753101;81;25694;-62
2022/11/19 10:42:35;;;;;;;17.95;12.18;;;;;;;5.50;62.27;100910.43;1754633;81;25791;-62
2022/11/19 10:45:07;;;;;;;17.12;10.93;;;;;;;5.41;61.85;100915.88;1753627;80;25871;-62
2022/11/19 10:47:43;;;;;;;12.88;10.38;;;;;;;5.50;62.41;100914.44;1754674;81;27520;-62
2022/11/19 10:50:21;;;;;;;16.05;11.20;;;;;;;5.60;61.18;100912.00;1754877;80;25758;-62
2022/11/19 10:53:14;;;;;;;12.82;9.80;;;;;;;5.64;60.65;100931.72;1702164;82;25778;-62
2022/11/19 10:55:46;;;;;;;16.65;12.15;;;;;;;5.62;61.85;100936.30;1749455;80;26072;-62
2022/11/19 10:58:24;;;;;;;18.77;12.93;;;;;;;5.59;61.42;100949.86;1737525;80;25799;-62
2022/11/19 11:00:55;;;;;;;20.57;12.85;;;;;;;5.28;60.62;100951.81;1702433;82;28656;-62
2022/11/19 11:04:01;;;;;;;20.00;13.72;;;;;;;5.06;61.34;100952.31;1733061;81;25672;-62
2022/11/19 11:06:55;;;;;;;16.75;12.60;;;;;;;4.90;61.58;100960.41;1718516;82;25775;-62
2022/11/19 11:09:38;;;;;;;19.37;11.95;;;;;;;4.62;61.46;100961.25;1702228;83;25973;-63
2022/11/19 11:15:24;;;;;;;21.68;13.98;;;;;;;4.44;62.56;100984.05;1731003;82;27559;-62
2022/11/19 11:18:07;;;;;;;20.00;14.00;;;;;;;4.40;63.01;100990.50;1730976;82;25935;-63
2022/11/19 11:20:37;;;;;;;20.10;14.40;;;;;;;4.48;63.32;100989.56;1729248;82;25864;-62
2022/11/19 11:23:18;;;;;;;16.70;12.45;;;;;;;4.46;63.31;100984.83;1711025;83;25866;-62
2022/11/19 11:26:05;;;;;;;20.60;13.78;;;;;;;4.44;63.01;100993.37;1725427;83;25712;-62
2022/11/19 11:28:33;;;;;;;23.80;14.95;;;;;;;4.36;63.05;101005.80;1706748;83;27590;-62
2022/11/19 11:31:03;;;;;;;19.92;13.40;;;;;;;4.29;63.74;100995.63;1727108;82;25819;-62
2022/11/19 11:33:42;;;;;;;16.42;12.60;;;;;;;4.29;63.75;101001.80;1731075;82;25749;-62
2022/11/19 11:36:15;;;;;;;21.40;12.37;;;;;;;4.30;63.97;100994.19;1704368;82;25772;-62
2022/11/19 11:38:46;;;;;;;18.35;12.15;;;;;;;4.36;63.86;100996.48;1731281;82;25753;-62
2022/11/19 11:41:18;;;;;;;15.60;11.50;;;;;;;4.63;64.59;101001.11;1731046;82;28768;-62
2022/11/19 11:44:01;;;;;;;18.32;11.75;;;;;;;4.86;64.89;101002.87;1731154;82;25959;-62
2022/11/19 11:46:39;;;;;;;29.70;14.05;;;;;;;4.99;63.50;101010.98;1731365;82;25759;-62
2022/11/19 11:49:10;;;;;;;18.30;11.93;;;;;;;5.05;63.97;101016.42;1729795;82;26522;-62
2022/11/19 11:51:38;;;;;;;18.50;11.33;;;;;;;5.24;64.21;101017.45;1703769;82;25863;-62
2022/11/19 11:54:19;;;;;;;15.15;11.75;;;;;;;5.35;63.11;101022.11;1719859;82;28177;-62
2022/11/19 11:56:47;;;;;;;15.95;10.98;;;;;;;5.18;62.02;101021.36;1712811;83;25999;-63
2022/11/19 11:59:29;;;;;;;17.27;12.15;;;;;;;4.99;61.60;101020.31;1718209;83;25855;-63
2022/11/19 12:02:04;;;;;;;21.48;12.28;;;;;;;5.06;62.93;101024.80;1728850;83;26621;-62
2022/11/19 12:04:32;;;;;;;15.72;10.75;;;;;;;5.25;62.94;101028.02;1734101;81;25816;-62
2022/11/19 12:07:14;;;;;;;17.52;12.03;;;;;;;5.32;62.33;101032.05;1737976;82;28160;-63
2022/11/19 12:10:03;;;;;;;15.65;11.03;;;;;;;5.29;61.94;101025.56;1738711;81;25847;-63
2022/11/19 12:13:02;;;;;;;16.42;11.88;;;;;;;5.43;62.53;101029.16;1736272;81;25768;-63
2022/11/19 12:15:37;;;;;;;16.57;11.57;;;;;;;5.51;62.71;101032.23;1736387;81;25989;-63
2022/11/19 12:18:36;;;;;;;16.70;12.20;;;;;;;5.56;62.32;101036.78;1740437;81;25858;-63